Terminal Aerodrome Forecast
Issued by NWS North Platte, NE

Home | Current Version | Previous Version | Text Only | Print | Product List | Glossary On
Versions: 1 2 3 4 5 6 7 8 9 10 11 12 13 14 15 16
000
FTUS43 KLBF 280200 AAA
TAFVTN
TAF AMD
KVTN 280258Z 2803/2824 VRB06KT 3SM SHRA BKN021 OVC070
      TEMPO 2803/2805 5SM -SHRA BKN021
     FM280500 VRB06KT 6SM -RA BKN015
     FM281100 11004KT 2SM BR BKN008
     FM281700 36008KT P6SM SCT008 OVC100=

USA.gov is the U.S. government's official web portal to all federal, state and local government web resources and services.